Time;durP1;ratioP1;P1;durP2;ratioP2;P2;SDS_P1;SDS_P2;PMS_P1;PMS_P2;Temp;Humidity;BMP_temperature;BMP_pressure;BME280_temperature;BME280_humidity;BME280_pressure;Samples;Min_cycle;Max_cycle;Signal;HPM_P1;HPM_P2
2022/11/08 00:02:29;;;;;;;10.02;3.28;;;14.60;99.90;;;;;;4902616;29;20445;-63
2022/11/08 00:04:56;;;;;;;14.52;4.45;;;14.60;99.90;;;;;;4901742;29;20052;-63
2022/11/08 00:15:39;;;;;;;28.63;12.23;;;14.40;99.90;;;;;;4887387;29;20084;-64
2022/11/08 00:18:06;;;;;;;13.68;6.80;;;14.50;99.90;;;;;;4901341;29;20499;-64
2022/11/08 00:20:33;;;;;;;15.38;4.63;;;14.40;99.90;;;;;;4900032;29;20045;-64
2022/11/08 00:23:00;;;;;;;9.60;4.40;;;14.40;99.90;;;;;;4885684;29;20053;-64
2022/11/08 00:25:27;;;;;;;12.02;3.33;;;14.40;99.90;;;;;;4885353;29;20435;-64
2022/11/08 00:27:54;;;;;;;9.32;3.42;;;14.40;99.90;;;;;;4885216;29;20048;-64
2022/11/08 00:30:21;;;;;;;16.63;4.40;;;14.40;99.90;;;;;;4901084;29;20048;-64
2022/11/08 00:32:48;;;;;;;14.32;4.28;;;14.40;99.90;;;;;;4884599;29;20342;-64
2022/11/08 00:35:15;;;;;;;16.40;4.93;;;14.40;99.90;;;;;;4869351;29;20096;-64
2022/11/08 00:37:42;;;;;;;16.02;4.55;;;14.40;99.90;;;;;;4869197;29;20049;-64
2022/11/08 00:40:09;;;;;;;15.48;4.22;;;14.30;99.90;;;;;;4884311;29;20080;-64
2022/11/08 00:42:36;;;;;;;11.98;3.67;;;14.30;99.90;;;;;;4901035;29;20096;-65
2022/11/08 00:45:03;;;;;;;10.68;3.15;;;14.30;99.90;;;;;;4900537;29;20091;-64
2022/11/08 00:47:30;;;;;;;21.80;5.88;;;14.30;99.90;;;;;;4901064;29;20358;-64
2022/11/08 00:49:57;;;;;;;16.40;5.68;;;14.30;99.90;;;;;;4884769;29;20374;-64
2022/11/08 00:52:26;;;;;;;15.13;5.03;;;14.40;99.90;;;;;;4900980;29;20100;-64
2022/11/08 00:54:52;;;;;;;14.70;4.63;;;14.40;99.90;;;;;;4884687;29;20049;-64
2022/11/08 00:57:19;;;;;;;11.07;3.47;;;14.30;99.90;;;;;;4901624;29;20378;-64
2022/11/08 01:00:07;;;;;;;16.45;5.07;;;14.30;99.90;;;;;;4886940;29;20532;-64
2022/11/08 01:02:34;;;;;;;15.27;4.35;;;14.30;99.90;;;;;;4883402;29;20477;-64
2022/11/08 01:05:01;;;;;;;16.45;4.03;;;14.30;99.90;;;;;;4900481;29;20052;-64
2022/11/08 01:07:27;;;;;;;11.15;3.97;;;14.30;99.90;;;;;;4883743;29;20048;-64
2022/11/08 01:09:54;;;;;;;11.02;3.65;;;14.30;99.90;;;;;;4900447;29;20444;-64
2022/11/08 01:12:21;;;;;;;12.57;4.20;;;14.30;99.90;;;;;;4868687;29;20049;-64
2022/11/08 01:14:48;;;;;;;13.68;4.47;;;14.30;99.90;;;;;;4884759;29;20097;-65
2022/11/08 01:17:15;;;;;;;14.82;4.30;;;14.30;99.90;;;;;;4868330;29;20085;-64
2022/11/08 01:19:43;;;;;;;14.65;4.05;;;14.30;99.90;;;;;;4883844;29;20476;-64
2022/11/08 01:22:09;;;;;;;11.35;4.13;;;14.40;99.90;;;;;;4883295;29;20096;-64
2022/11/08 01:24:36;;;;;;;21.25;5.05;;;14.40;99.90;;;;;;4900234;29;20405;-64
2022/11/08 01:27:03;;;;;;;20.10;6.30;;;14.40;99.90;;;;;;4901087;29;20151;-64
2022/11/08 01:29:31;;;;;;;13.13;4.80;;;14.40;99.90;;;;;;4900006;29;20053;-64
2022/11/08 01:31:58;;;;;;;13.60;5.45;;;14.40;99.90;;;;;;4883142;29;20500;-64
2022/11/08 01:34:25;;;;;;;12.98;5.32;;;14.40;99.90;;;;;;4883400;29;20048;-64
2022/11/08 01:36:52;;;;;;;12.68;4.45;;;14.40;99.90;;;;;;4900614;29;20124;-64
2022/11/08 01:39:19;;;;;;;10.55;4.10;;;14.30;99.90;;;;;;4899818;29;20124;-64
2022/11/08 01:41:45;;;;;;;13.50;4.53;;;14.40;99.90;;;;;;4868051;29;20060;-64
2022/11/08 01:44:15;;;;;;;17.75;4.07;;;14.40;99.90;;;;;;4867889;29;20040;-64
2022/11/08 01:46:45;;;;;;;13.23;4.32;;;14.40;99.90;;;;;;4883658;29;20049;-64
2022/11/08 01:49:18;;;;;;;10.60;4.20;;;14.40;99.90;;;;;;4884029;29;20052;-64
2022/11/08 01:52:13;;;;;;;13.02;4.97;;;14.40;99.90;;;;;;4900396;29;20048;-64
2022/11/08 01:54:43;;;;;;;12.48;4.72;;;14.40;99.90;;;;;;4872410;29;20052;-64
2022/11/08 01:57:11;;;;;;;8.75;3.13;;;14.40;99.90;;;;;;4883437;29;20096;-64
2022/11/08 01:59:39;;;;;;;12.87;4.47;;;14.40;99.90;;;;;;4883098;29;20053;-64
2022/11/08 02:02:07;;;;;;;11.85;4.70;;;14.40;99.90;;;;;;4899016;29;20106;-64
2022/11/08 02:04:34;;;;;;;11.13;3.88;;;14.50;99.90;;;;;;4899772;29;20052;-64
2022/11/08 02:07:01;;;;;;;14.98;4.00;;;14.50;99.90;;;;;;4868658;29;20101;-64
2022/11/08 02:09:28;;;;;;;13.68;3.72;;;14.40;99.90;;;;;;4882597;29;20044;-65
2022/11/08 02:11:55;;;;;;;14.70;4.25;;;14.40;99.90;;;;;;4867232;29;20464;-64
2022/11/08 02:14:22;;;;;;;10.30;3.05;;;14.50;99.90;;;;;;4867049;29;20092;-64
2022/11/08 02:16:48;;;;;;;12.02;3.60;;;14.50;99.90;;;;;;4882607;29;20052;-64
2022/11/08 02:19:29;;;;;;;13.00;4.50;;;14.50;99.90;;;;;;4882515;29;20461;-64
2022/11/08 02:21:58;;;;;;;10.18;4.75;;;14.50;99.90;;;;;;4869645;29;20442;-64
2022/11/08 02:24:25;;;;;;;11.52;3.58;;;14.60;99.90;;;;;;4883041;29;20144;-64
2022/11/08 02:26:52;;;;;;;14.32;4.30;;;14.60;99.90;;;;;;4867321;29;20477;-64
2022/11/08 02:29:29;;;;;;;14.52;3.60;;;14.50;99.90;;;;;;4867907;29;20045;-64
2022/11/08 02:31:57;;;;;;;13.20;3.15;;;14.40;99.90;;;;;;4899886;29;20044;-64
2022/11/08 02:34:36;;;;;;;9.25;4.70;;;14.30;99.90;;;;;;4852856;29;20048;-64
2022/11/08 02:37:03;;;;;;;13.73;4.40;;;14.20;99.90;;;;;;4898744;29;20131;-64
2022/11/08 02:39:31;;;;;;;13.13;4.10;;;14.10;99.90;;;;;;4867196;29;20052;-64
2022/11/08 02:41:59;;;;;;;12.05;3.67;;;14.20;99.90;;;;;;4882373;29;20060;-64
2022/11/08 02:44:25;;;;;;;12.70;2.95;;;14.20;99.90;;;;;;4882388;29;20048;-64
2022/11/08 02:46:52;;;;;;;11.82;3.78;;;14.30;99.90;;;;;;4881759;29;20052;-64
2022/11/08 02:49:19;;;;;;;12.20;4.40;;;14.30;99.90;;;;;;4881905;29;20048;-64
2022/11/08 02:51:46;;;;;;;13.65;4.15;;;14.30;99.90;;;;;;4881757;29;20104;-64
2022/11/08 02:54:13;;;;;;;8.88;3.03;;;14.40;99.90;;;;;;4899316;29;20055;-64
2022/11/08 02:56:40;;;;;;;11.75;4.28;;;14.50;99.90;;;;;;4898276;29;20044;-64
2022/11/08 02:59:07;;;;;;;8.93;3.65;;;14.50;99.90;;;;;;4898387;29;20083;-64
2022/11/08 03:01:34;;;;;;;11.23;3.53;;;14.50;99.90;;;;;;4898276;29;20457;-64
2022/11/08 03:04:01;;;;;;;13.02;3.90;;;14.60;99.90;;;;;;4898357;29;20045;-63
2022/11/08 03:06:27;;;;;;;11.27;3.58;;;14.60;99.90;;;;;;4898213;29;20060;-63
2022/11/08 03:08:54;;;;;;;13.32;4.20;;;14.60;99.90;;;;;;4882065;29;20040;-63
2022/11/08 03:11:21;;;;;;;10.70;4.30;;;14.70;99.90;;;;;;4882571;29;20108;-63
2022/11/08 03:13:48;;;;;;;8.55;3.33;;;14.60;99.90;;;;;;4898137;29;20501;-63
2022/11/08 03:16:15;;;;;;;8.95;3.42;;;14.60;99.90;;;;;;4881562;29;20060;-63
2022/11/08 03:18:42;;;;;;;12.75;4.93;;;14.50;99.90;;;;;;4898352;29;20148;-63
2022/11/08 03:21:12;;;;;;;7.75;3.85;;;14.50;99.90;;;;;;4882561;29;20103;-63
2022/11/08 03:23:39;;;;;;;11.63;3.38;;;14.50;99.90;;;;;;4867404;29;20052;-63
2022/11/08 03:26:06;;;;;;;12.13;3.67;;;14.40;99.90;;;;;;4881971;29;20187;-63
2022/11/08 03:28:33;;;;;;;9.45;3.58;;;14.40;99.90;;;;;;4867255;29;20079;-63
2022/11/08 03:31:00;;;;;;;8.07;3.58;;;14.30;99.90;;;;;;4881429;29;20076;-63
2022/11/08 03:33:27;;;;;;;12.93;3.67;;;14.20;99.90;;;;;;4882162;29;20461;-63
2022/11/08 03:35:54;;;;;;;12.00;3.47;;;14.20;99.90;;;;;;4881359;29;20045;-63
2022/11/08 03:38:20;;;;;;;12.45;3.35;;;14.10;99.90;;;;;;4897879;29;20052;-63
2022/11/08 03:40:47;;;;;;;11.45;3.70;;;14.10;99.90;;;;;;4882072;29;20052;-63
2022/11/08 03:43:14;;;;;;;10.82;3.58;;;14.10;99.90;;;;;;4881395;29;20049;-63
2022/11/08 03:45:41;;;;;;;9.23;2.70;;;14.00;99.90;;;;;;4882493;29;20076;-63
2022/11/08 03:48:08;;;;;;;14.90;3.00;;;14.00;99.90;;;;;;4897926;29;20473;-63
2022/11/08 03:50:35;;;;;;;11.98;3.45;;;14.00;99.90;;;;;;4880952;29;20053;-63
2022/11/08 03:53:02;;;;;;;12.95;3.22;;;14.00;99.90;;;;;;4881729;29;20421;-63
2022/11/08 03:55:29;;;;;;;16.50;4.60;;;14.00;99.90;;;;;;4881026;29;20084;-63
2022/11/08 03:57:55;;;;;;;11.10;3.22;;;14.00;99.90;;;;;;4897721;29;20100;-63
2022/11/08 04:00:27;;;;;;;7.55;3.05;;;14.00;99.90;;;;;;4866231;29;20059;-63
2022/11/08 04:02:54;;;;;;;10.93;3.08;;;14.00;99.90;;;;;;4898617;29;20049;-63
2022/11/08 04:05:21;;;;;;;11.63;3.78;;;13.90;99.90;;;;;;4896542;29;20055;-63
2022/11/08 04:07:48;;;;;;;11.15;3.42;;;13.80;99.90;;;;;;4898443;29;20465;-63
2022/11/08 04:10:16;;;;;;;8.68;3.92;;;13.80;99.90;;;;;;4881362;29;20100;-62
2022/11/08 04:15:29;;;;;;;8.07;3.33;;;13.60;99.90;;;;;;4883894;29;20056;-63
2022/11/08 04:23:32;;;;;;;;;;;13.50;99.90;;;;;;4898182;29;20334;-63
2022/11/08 04:26:00;;;;;;;11.52;3.72;;;13.50;99.90;;;;;;4881941;29;19919;-62
2022/11/08 04:28:29;;;;;;;12.50;3.45;;;13.50;99.90;;;;;;4899108;29;20346;-62
2022/11/08 04:31:01;;;;;;;12.27;3.88;;;13.50;99.90;;;;;;4881805;29;20055;-62
2022/11/08 04:33:28;;;;;;;10.68;3.88;;;13.50;99.90;;;;;;4881247;29;20073;-62
2022/11/08 04:35:55;;;;;;;11.10;3.55;;;13.50;99.90;;;;;;4896762;29;20052;-63
2022/11/08 04:38:22;;;;;;;14.90;3.97;;;13.40;99.90;;;;;;4884353;29;20056;-63
2022/11/08 04:40:49;;;;;;;6.68;2.97;;;13.50;99.90;;;;;;4884485;29;20041;-62
2022/11/08 04:43:16;;;;;;;16.38;4.10;;;13.50;99.90;;;;;;4900993;29;20077;-63
2022/11/08 04:45:43;;;;;;;26.25;17.63;;;13.50;99.90;;;;;;4869645;29;20040;-63
2022/11/08 04:48:10;;;;;;;92.53;69.00;;;13.50;99.90;;;;;;4901090;29;20118;-60
2022/11/08 04:50:37;;;;;;;10.43;7.15;;;13.50;99.90;;;;;;4901231;29;20048;-62
2022/11/08 04:53:04;;;;;;;16.75;5.28;;;13.50;99.90;;;;;;4884150;29;20108;-62
2022/11/08 04:55:31;;;;;;;8.45;3.38;;;13.40;99.90;;;;;;4884609;29;20116;-62
2022/11/08 04:57:58;;;;;;;10.23;3.65;;;13.40;99.90;;;;;;4901327;29;20072;-62
2022/11/08 05:00:25;;;;;;;10.35;3.38;;;13.40;99.90;;;;;;4884149;29;20539;-62
2022/11/08 05:02:52;;;;;;;9.45;4.03;;;13.40;99.90;;;;;;4884072;29;20056;-62
2022/11/08 05:05:19;;;;;;;12.13;2.65;;;13.30;99.90;;;;;;4901008;29;20041;-62
2022/11/08 05:07:46;;;;;;;10.85;3.60;;;13.30;99.90;;;;;;4900783;29;20060;-62
2022/11/08 05:10:13;;;;;;;10.20;2.78;;;13.20;99.90;;;;;;4900483;29;20048;-62
2022/11/08 05:12:40;;;;;;;10.43;2.78;;;13.20;99.90;;;;;;4868614;29;20045;-62
2022/11/08 05:15:07;;;;;;;15.50;3.50;;;13.10;99.90;;;;;;4900181;29;20131;-62
2022/11/08 05:17:34;;;;;;;5.20;2.40;;;13.10;99.90;;;;;;4900295;29;20101;-62
2022/11/08 05:25:32;;;;;;;7.43;2.60;;;13.10;99.90;;;;;;4887050;29;20060;-62
2022/11/08 05:27:59;;;;;;;9.13;2.30;;;13.10;99.90;;;;;;4884614;29;20045;-62
2022/11/08 05:30:26;;;;;;;7.88;2.35;;;13.10;99.90;;;;;;4900551;29;20045;-62
2022/11/08 05:32:52;;;;;;;9.35;2.45;;;13.00;99.90;;;;;;4900797;29;20129;-62
2022/11/08 05:35:21;;;;;;;15.45;3.67;;;13.00;99.90;;;;;;4883412;29;20499;-63
2022/11/08 05:37:48;;;;;;;9.82;2.20;;;13.00;99.90;;;;;;4883727;29;20044;-62
2022/11/08 05:40:15;;;;;;;8.15;2.30;;;12.90;99.90;;;;;;4900130;29;20101;-62
2022/11/08 05:42:42;;;;;;;10.35;3.03;;;12.80;99.90;;;;;;4883266;29;20052;-63
2022/11/08 05:45:09;;;;;;;7.45;2.25;;;12.80;99.90;;;;;;4884276;29;20076;-64
2022/11/08 05:47:36;;;;;;;10.55;2.38;;;12.80;99.90;;;;;;4899919;29;20104;-63
2022/11/08 05:50:04;;;;;;;9.82;3.03;;;12.80;99.90;;;;;;4900130;29;20441;-63
2022/11/08 05:52:31;;;;;;;7.68;3.33;;;12.80;99.90;;;;;;4884347;29;20052;-63
2022/11/08 05:54:59;;;;;;;7.07;2.60;;;12.80;99.90;;;;;;4883448;29;20045;-61
2022/11/08 05:57:25;;;;;;;6.43;2.00;;;12.80;99.90;;;;;;4882928;29;20106;-64
2022/11/08 05:59:52;;;;;;;6.50;1.92;;;12.80;99.90;;;;;;4900375;29;20469;-64
2022/11/08 06:02:19;;;;;;;9.95;3.15;;;12.80;99.90;;;;;;4883306;29;20055;-62
2022/11/08 06:04:46;;;;;;;11.95;3.17;;;12.80;99.90;;;;;;4899759;29;20044;-62
2022/11/08 06:07:13;;;;;;;10.13;2.92;;;12.80;99.90;;;;;;4868478;29;20044;-62
2022/11/08 06:09:40;;;;;;;11.50;2.50;;;12.80;99.90;;;;;;4867823;29;20049;-62
2022/11/08 06:12:07;;;;;;;10.55;2.67;;;12.80;99.90;;;;;;4867895;29;20081;-62
2022/11/08 06:14:34;;;;;;;5.22;1.92;;;12.90;99.90;;;;;;4882692;29;20053;-62
2022/11/08 06:17:01;;;;;;;10.35;3.53;;;12.80;99.90;;;;;;4882915;29;20437;-62
2022/11/08 06:19:28;;;;;;;9.18;2.53;;;12.80;99.90;;;;;;4867249;29;20453;-62
2022/11/08 06:21:55;;;;;;;5.82;1.77;;;12.90;99.90;;;;;;4882445;29;20484;-62
2022/11/08 06:24:21;;;;;;;6.43;2.67;;;12.90;99.90;;;;;;4867593;29;20121;-62
2022/11/08 06:26:48;;;;;;;8.65;2.30;;;12.90;99.90;;;;;;4882930;29;20045;-62
2022/11/08 06:29:15;;;;;;;7.00;1.90;;;13.00;99.90;;;;;;4882491;29;20048;-62
2022/11/08 06:31:42;;;;;;;6.50;2.22;;;12.90;99.90;;;;;;4899450;29;20115;-62
2022/11/08 06:34:09;;;;;;;10.43;2.90;;;12.90;99.90;;;;;;4883107;29;20048;-61
2022/11/08 06:36:36;;;;;;;8.00;2.13;;;12.80;99.90;;;;;;4867290;29;20079;-62
2022/11/08 06:39:03;;;;;;;11.02;2.65;;;12.80;99.90;;;;;;4882415;29;20049;-62
2022/11/08 06:41:31;;;;;;;8.82;2.83;;;12.90;99.90;;;;;;4883175;29;20108;-62
2022/11/08 06:43:58;;;;;;;9.57;2.17;;;12.90;99.90;;;;;;4899886;29;20048;-62
2022/11/08 06:46:25;;;;;;;7.43;2.55;;;12.90;99.90;;;;;;4866975;29;20052;-62
2022/11/08 06:48:52;;;;;;;9.25;2.28;;;12.90;99.90;;;;;;4899043;29;20052;-62
2022/11/08 06:51:19;;;;;;;9.55;2.10;;;12.90;99.90;;;;;;4899625;29;20052;-62
2022/11/08 06:53:46;;;;;;;9.32;2.60;;;13.00;99.90;;;;;;4882389;29;20049;-62
2022/11/08 06:56:13;;;;;;;11.35;3.20;;;13.00;99.90;;;;;;4898368;29;20044;-62
2022/11/08 06:58:40;;;;;;;6.35;2.75;;;13.10;99.90;;;;;;4898937;29;20053;-62
2022/11/08 07:01:07;;;;;;;14.60;2.78;;;13.10;99.90;;;;;;4867227;29;20052;-62
2022/11/08 07:03:35;;;;;;;14.75;2.53;;;13.20;99.90;;;;;;4867099;29;20044;-62
2022/11/08 07:06:02;;;;;;;10.95;2.42;;;13.10;99.90;;;;;;4867074;29;20044;-62
2022/11/08 07:08:30;;;;;;;56.70;29.92;;;13.10;99.90;;;;;;4898328;29;20556;-63
2022/11/08 07:10:57;;;;;;;40.97;21.17;;;13.20;99.90;;;;;;4898319;29;20045;-63
2022/11/08 07:13:24;;;;;;;35.47;20.45;;;13.20;99.90;;;;;;4882005;29;20053;-62
2022/11/08 07:15:51;;;;;;;14.75;6.65;;;13.30;99.90;;;;;;4897869;29;20108;-62
2022/11/08 07:18:18;;;;;;;41.72;27.75;;;13.30;99.90;;;;;;4898264;29;20056;-62
2022/11/08 07:20:46;;;;;;;18.83;7.40;;;13.30;99.90;;;;;;4881454;29;20394;-52
2022/11/08 07:23:13;;;;;;;16.83;4.95;;;13.30;99.90;;;;;;4898521;29;20442;-59
2022/11/08 07:25:40;;;;;;;13.00;3.50;;;13.20;99.90;;;;;;4866733;29;20100;-62
2022/11/08 07:28:07;;;;;;;14.70;3.42;;;13.10;99.90;;;;;;4881653;29;20080;-63
2022/11/08 07:30:34;;;;;;;12.45;3.33;;;13.00;99.90;;;;;;4850980;29;20053;-63
2022/11/08 07:33:01;;;;;;;17.95;5.88;;;12.80;99.90;;;;;;4881092;29;20140;-62
2022/11/08 07:35:28;;;;;;;245.57;210.57;;;12.80;99.90;;;;;;4881297;29;20480;-62
2022/11/08 07:37:56;;;;;;;23.92;13.23;;;12.80;99.90;;;;;;4898171;29;20384;-62
2022/11/08 07:40:23;;;;;;;15.85;7.35;;;12.80;99.90;;;;;;4881183;29;20062;-63
2022/11/08 07:42:56;;;;;;;12.50;4.72;;;12.70;99.90;;;;;;4897639;29;20048;-60
2022/11/08 07:45:43;;;;;;;15.15;3.97;;;12.70;99.90;;;;;;4897953;29;20053;-60
2022/11/08 07:48:11;;;;;;;15.63;4.45;;;12.70;99.90;;;;;;4898652;29;20059;-60
2022/11/08 07:50:40;;;;;;;20.63;4.40;;;12.70;99.90;;;;;;4880919;29;20076;-60
2022/11/08 07:53:07;;;;;;;15.57;4.88;;;12.70;99.90;;;;;;4881356;29;20358;-61
2022/11/08 07:55:43;;;;;;;13.93;3.30;;;12.80;99.90;;;;;;4897575;29;20053;-60
2022/11/08 07:58:10;;;;;;;20.80;4.28;;;12.80;99.90;;;;;;4881456;29;20500;-61
2022/11/08 08:00:38;;;;;;;21.42;4.63;;;12.80;99.90;;;;;;4881206;29;20105;-61
2022/11/08 08:03:06;;;;;;;21.48;7.90;;;12.80;99.90;;;;;;4881400;29;20120;-60
2022/11/08 08:05:35;;;;;;;83.60;54.70;;;12.90;99.90;;;;;;4896666;29;20381;-61
2022/11/08 08:08:02;;;;;;;27.00;10.75;;;12.90;99.90;;;;;;4865489;29;20053;-61
2022/11/08 08:10:29;;;;;;;20.48;6.03;;;12.90;99.90;;;;;;4881290;29;20100;-61
2022/11/08 08:12:56;;;;;;;17.92;5.65;;;13.00;99.90;;;;;;4883273;29;20104;-58
2022/11/08 08:15:23;;;;;;;15.85;4.85;;;13.00;99.90;;;;;;4901001;29;20057;-59
2022/11/08 08:17:50;;;;;;;20.90;5.10;;;13.10;99.90;;;;;;4901663;29;20044;-57
2022/11/08 08:20:18;;;;;;;18.95;6.13;;;13.10;99.90;;;;;;4901425;29;20104;-58
2022/11/08 08:22:45;;;;;;;16.63;4.05;;;13.10;99.90;;;;;;4900822;29;20433;-57
2022/11/08 08:25:13;;;;;;;15.05;3.75;;;13.20;99.90;;;;;;4901587;29;20056;-59
2022/11/08 08:27:40;;;;;;;22.13;7.22;;;13.20;99.90;;;;;;4899510;29;20060;-59
2022/11/08 08:30:07;;;;;;;21.63;4.93;;;13.20;99.90;;;;;;4869451;29;20092;-59
2022/11/08 08:32:34;;;;;;;14.63;4.82;;;13.30;99.90;;;;;;4900797;29;20171;-60
2022/11/08 08:35:01;;;;;;;18.63;4.60;;;13.30;99.90;;;;;;4900645;29;20044;-61
2022/11/08 08:37:28;;;;;;;124.18;91.25;;;13.30;99.90;;;;;;4868765;29;20049;-60
2022/11/08 08:39:55;;;;;;;22.33;8.30;;;13.40;99.90;;;;;;4900667;29;20046;-60
2022/11/08 08:42:22;;;;;;;24.38;6.55;;;13.50;99.90;;;;;;4900832;29;20044;-59
2022/11/08 08:44:48;;;;;;;21.60;5.50;;;13.50;99.90;;;;;;4883726;29;20096;-59
2022/11/08 08:47:15;;;;;;;20.80;5.80;;;13.50;99.90;;;;;;4900685;29;20417;-60
2022/11/08 08:49:42;;;;;;;19.02;5.00;;;13.50;99.90;;;;;;4883844;29;20048;-60
2022/11/08 08:52:09;;;;;;;22.17;5.50;;;13.60;99.90;;;;;;4900294;29;20480;-60
2022/11/08 08:54:36;;;;;;;21.00;5.03;;;13.60;99.90;;;;;;4899239;29;20049;-60
2022/11/08 08:57:03;;;;;;;21.25;5.22;;;13.60;99.90;;;;;;4901022;29;20175;-60
2022/11/08 08:59:29;;;;;;;32.00;5.55;;;13.60;99.90;;;;;;4900128;29;20096;-59
2022/11/08 09:02:16;;;;;;;17.77;5.25;;;13.60;99.90;;;;;;4899964;29;20138;-59
2022/11/08 09:04:43;;;;;;;19.40;4.57;;;13.60;99.90;;;;;;4883628;29;20098;-60
2022/11/08 09:07:10;;;;;;;18.48;4.85;;;13.60;99.90;;;;;;4884335;29;20048;-60
2022/11/08 09:09:37;;;;;;;17.80;5.43;;;13.60;99.90;;;;;;4900224;29;20457;-59
2022/11/08 09:12:04;;;;;;;18.10;4.63;;;13.60;99.90;;;;;;4900626;29;20461;-59
2022/11/08 09:14:39;;;;;;;16.98;4.20;;;13.50;99.90;;;;;;4884277;29;20044;-60
2022/11/08 09:17:05;;;;;;;13.30;3.47;;;13.50;99.90;;;;;;4899961;29;20131;-59
2022/11/08 09:19:32;;;;;;;13.95;3.60;;;13.50;99.90;;;;;;4883469;29;20060;-57
2022/11/08 09:21:59;;;;;;;10.95;3.55;;;13.40;99.90;;;;;;4900600;29;20059;-60
2022/11/08 09:24:26;;;;;;;16.92;3.95;;;13.40;99.90;;;;;;4882962;29;20048;-60
2022/11/08 09:26:53;;;;;;;22.33;4.50;;;13.40;99.90;;;;;;4899979;29;20049;-60
2022/11/08 09:29:20;;;;;;;19.00;5.07;;;13.40;99.90;;;;;;4900623;29;20045;-60
2022/11/08 09:31:48;;;;;;;14.68;4.20;;;13.50;99.90;;;;;;4867896;29;20049;-60
2022/11/08 09:34:15;;;;;;;24.80;4.65;;;13.60;99.90;;;;;;4900628;29;20068;-60
2022/11/08 09:36:47;;;;;;;17.60;5.05;;;13.60;99.90;;;;;;4884310;29;20047;-59
2022/11/08 09:39:14;;;;;;;18.38;4.38;;;13.70;99.90;;;;;;4883160;29;20056;-60
2022/11/08 09:42:07;;;;;;;18.67;5.13;;;13.80;99.90;;;;;;4883099;29;20076;-59
2022/11/08 09:45:08;;;;;;;21.85;5.28;;;13.90;99.90;;;;;;4886052;29;20052;-58
2022/11/08 09:47:35;;;;;;;14.77;5.18;;;14.00;99.90;;;;;;4883533;29;20385;-59
2022/11/08 09:50:17;;;;;;;17.15;3.85;;;14.10;99.90;;;;;;4899755;29;20104;-58
2022/11/08 09:52:48;;;;;;;17.52;3.92;;;14.20;99.90;;;;;;4900096;29;20092;-59
2022/11/08 09:55:46;;;;;;;12.43;3.47;;;14.20;99.90;;;;;;4868685;29;20080;-59
2022/11/08 09:58:24;;;;;;;15.00;3.55;;;14.20;99.90;;;;;;4899904;29;20107;-58
2022/11/08 10:00:52;;;;;;;29.67;5.82;;;14.30;99.90;;;;;;4883474;29;20044;-57
2022/11/08 10:03:22;;;;;;;17.58;4.57;;;14.30;99.90;;;;;;4899506;29;20096;-58
2022/11/08 10:06:24;;;;;;;11.82;3.47;;;14.30;99.90;;;;;;4867405;29;20053;-57
2022/11/08 10:09:10;;;;;;;14.38;4.10;;;14.40;99.90;;;;;;4884852;29;20048;-61
2022/11/08 10:12:02;;;;;;;12.02;5.15;;;14.50;99.90;;;;;;4899260;29;20076;-64
2022/11/08 10:14:31;;;;;;;19.75;4.72;;;14.50;99.90;;;;;;4882544;29;20044;-61
2022/11/08 10:17:17;;;;;;;15.07;3.92;;;14.50;99.90;;;;;;4882206;29;20388;-58
2022/11/08 10:19:44;;;;;;;11.95;4.22;;;14.50;99.90;;;;;;4899796;29;20056;-60
2022/11/08 10:22:21;;;;;;;13.27;3.40;;;14.40;99.90;;;;;;4883024;29;20103;-59
2022/11/08 10:25:04;;;;;;;16.15;4.10;;;14.30;99.90;;;;;;4868566;29;20048;-58
2022/11/08 10:27:36;;;;;;;12.63;3.45;;;14.20;99.90;;;;;;4868007;29;20063;-59
2022/11/08 10:30:16;;;;;;;19.10;3.88;;;14.10;99.90;;;;;;4898760;29;20055;-59
2022/11/08 10:32:43;;;;;;;12.80;3.20;;;14.10;99.90;;;;;;4852929;29;20121;-60
2022/11/08 10:35:10;;;;;;;15.93;3.45;;;14.00;99.90;;;;;;4881149;29;20044;-60
2022/11/08 10:37:37;;;;;;;11.27;3.28;;;14.00;99.90;;;;;;4899076;29;20048;-60
2022/11/08 10:40:32;;;;;;;13.07;3.55;;;14.00;99.90;;;;;;4866901;29;20097;-59
2022/11/08 10:43:21;;;;;;;10.65;3.67;;;14.00;99.90;;;;;;4899428;29;20052;-59
2022/11/08 10:45:48;;;;;;;;;;;14.00;99.90;;;;;;4872989;29;20127;-60
2022/11/08 10:48:15;;;;;;;11.30;3.80;;;14.00;99.90;;;;;;4898312;29;20038;-60
2022/11/08 10:50:44;;;;;;;18.95;4.90;;;14.00;99.90;;;;;;4899329;29;20096;-60
2022/11/08 10:53:20;;;;;;;18.30;4.40;;;14.10;99.90;;;;;;4898397;29;20052;-59
2022/11/08 10:55:50;;;;;;;16.65;5.25;;;14.10;99.90;;;;;;4867492;29;20048;-60
2022/11/08 10:58:37;;;;;;;15.60;5.30;;;14.20;99.90;;;;;;4851065;29;20146;-60
2022/11/08 11:01:18;;;;;;;16.73;4.28;;;14.30;99.90;;;;;;4898470;29;20128;-61
2022/11/08 11:03:45;;;;;;;13.43;4.45;;;14.40;99.90;;;;;;4881804;29;20473;-61
2022/11/08 11:06:29;;;;;;;13.10;4.55;;;14.50;99.90;;;;;;4896532;29;20480;-60
2022/11/08 11:08:58;;;;;;;19.02;5.28;;;14.70;99.90;;;;;;4898060;29;20056;-61
2022/11/08 11:11:45;;;;;;;18.52;5.00;;;14.70;99.90;;;;;;4897867;29;20498;-59
2022/11/08 11:14:20;;;;;;;20.88;4.88;;;14.70;99.90;;;;;;4881353;29;20123;-58
2022/11/08 11:16:56;;;;;;;18.10;4.30;;;14.70;99.90;;;;;;4897647;29;20052;-52
2022/11/08 11:19:26;;;;;;;15.32;4.85;;;14.60;99.90;;;;;;4881838;29;20052;-56
2022/11/08 11:22:06;;;;;;;14.93;4.30;;;14.50;99.90;;;;;;4866547;29;20056;-52
2022/11/08 11:24:46;;;;;;;16.50;5.28;;;14.40;99.90;;;;;;4898522;29;20052;-53
2022/11/08 11:27:27;;;;;;;15.02;5.32;;;14.20;99.90;;;;;;4883179;29;20547;-54
2022/11/08 11:30:17;;;;;;;12.45;3.85;;;14.10;99.90;;;;;;4882930;29;20048;-55
2022/11/08 11:32:59;;;;;;;17.75;4.70;;;14.00;99.90;;;;;;4897455;29;20052;-55
2022/11/08 11:35:44;;;;;;;12.07;3.45;;;13.90;99.90;;;;;;4898605;29;20056;-56
2022/11/08 11:38:17;;;;;;;13.00;4.75;;;13.90;99.90;;;;;;4896290;29;20048;-59
2022/11/08 11:40:47;;;;;;;15.50;4.38;;;13.90;99.90;;;;;;4881772;29;20045;-60
2022/11/08 11:43:19;;;;;;;19.13;4.85;;;14.00;99.90;;;;;;4898295;29;20048;-60
2022/11/08 11:45:57;;;;;;;13.35;4.18;;;14.00;99.90;;;;;;4866168;29;20045;-62
2022/11/08 11:48:29;;;;;;;23.45;8.60;;;14.10;99.90;;;;;;4866607;29;20481;-60
2022/11/08 11:50:57;;;;;;;24.67;6.30;;;14.10;99.90;;;;;;4896235;29;20048;-61
2022/11/08 11:53:25;;;;;;;20.80;4.88;;;14.30;99.90;;;;;;4880803;29;20059;-61
2022/11/08 11:56:11;;;;;;;17.60;5.55;;;14.40;99.90;;;;;;4865406;29;20053;-61
2022/11/08 11:59:05;;;;;;;20.63;5.30;;;14.50;99.90;;;;;;4898030;29;20387;-61
2022/11/08 12:01:54;;;;;;;17.50;4.93;;;14.60;99.90;;;;;;4897047;29;20055;-61
2022/11/08 12:05:05;;;;;;;15.97;4.17;;;14.70;99.90;;;;;;4898141;29;20098;-60
2022/11/08 12:07:32;;;;;;;22.65;5.32;;;14.70;99.90;;;;;;4803116;29;20418;-61
2022/11/08 12:10:37;;;;;;;15.75;4.75;;;14.70;99.90;;;;;;4774242;29;20104;-60
2022/11/08 12:13:27;;;;;;;22.10;5.18;;;14.70;99.90;;;;;;4875902;29;20475;-61
2022/11/08 12:16:00;;;;;;;20.17;5.15;;;14.70;99.90;;;;;;4880894;29;20064;-60
2022/11/08 12:18:52;;;;;;;11.57;3.53;;;14.70;99.90;;;;;;4866418;29;20452;-62
2022/11/08 12:21:56;;;;;;;33.03;14.50;;;14.80;99.90;;;;;;4880761;29;20374;-61
2022/11/08 12:24:36;;;;;;;24.05;6.70;;;14.70;99.90;;;;;;4880511;29;20044;-77
2022/11/08 12:27:12;;;;;;;16.45;4.35;;;14.70;99.90;;;;;;4866534;29;20048;-74
2022/11/08 12:29:55;;;;;;;18.92;5.70;;;14.70;99.90;;;;;;4897169;29;20044;-80
2022/11/08 12:32:43;;;;;;;22.17;5.32;;;14.80;99.90;;;;;;4881198;29;20048;-79
2022/11/08 12:35:16;;;;;;;22.25;5.60;;;14.90;99.90;;;;;;4867525;29;20486;-70
2022/11/08 12:38:15;;;;;;;21.33;5.10;;;15.00;99.90;;;;;;4897884;29;20121;-57
2022/11/08 12:40:42;;;;;;;;;;;15.00;99.90;;;;;;4880092;29;20055;-58
2022/11/08 12:43:36;;;;;;;17.13;4.38;;;14.90;99.90;;;;;;4881354;29;19923;-58
2022/11/08 12:46:19;;;;;;;17.92;4.07;;;14.90;99.90;;;;;;4883079;29;20063;-59
2022/11/08 12:48:49;;;;;;;18.08;3.85;;;14.80;99.90;;;;;;4850554;29;20045;-59
2022/11/08 12:51:27;;;;;;;17.30;4.35;;;14.70;99.90;;;;;;4896927;29;20116;-59
2022/11/08 12:54:12;;;;;;;13.52;3.88;;;14.70;99.90;;;;;;4880497;29;20206;-59
2022/11/08 12:56:44;;;;;;;14.00;3.95;;;14.70;99.90;;;;;;4880544;29;20056;-60
2022/11/08 12:59:38;;;;;;;16.75;4.32;;;14.60;99.90;;;;;;4900614;29;20052;-59
2022/11/08 13:02:13;;;;;;;16.60;4.68;;;14.60;99.90;;;;;;4884351;29;20060;-57
2022/11/08 13:05:11;;;;;;;15.18;5.93;;;14.60;99.90;;;;;;4869625;29;20118;-57
2022/11/08 13:07:44;;;;;;;19.58;4.72;;;14.70;99.90;;;;;;4901189;29;20387;-60
2022/11/08 13:10:36;;;;;;;89.95;57.75;;;14.60;99.90;;;;;;4900511;29;20049;-59
2022/11/08 13:13:27;;;;;;;20.98;7.53;;;14.60;99.90;;;;;;4890368;29;20139;-56
2022/11/08 13:16:15;;;;;;;17.90;4.90;;;14.40;99.90;;;;;;4883977;29;20137;-59
2022/11/08 13:18:52;;;;;;;19.27;5.45;;;14.20;99.90;;;;;;4901248;29;20140;-59
2022/11/08 13:21:24;;;;;;;19.65;5.13;;;14.20;99.90;;;;;;4901134;29;20076;-57